sensor_id;sensor_type;location;lat;lon;timestamp;P1;durP1;ratioP1;P2;durP2;ratioP2
27899;SDS011;15243;50.726;7.080;2023-02-23T00:01:53;68.97;;;43.22;;
27899;SDS011;15243;50.726;7.080;2023-02-23T00:04:21;66.00;;;40.60;;
27899;SDS011;15243;50.726;7.080;2023-02-23T00:06:49;67.82;;;40.28;;
27899;SDS011;15243;50.726;7.080;2023-02-23T00:09:20;65.65;;;40.47;;
27899;SDS011;15243;50.726;7.080;2023-02-23T00:11:50;69.95;;;40.17;;
27899;SDS011;15243;50.726;7.080;2023-02-23T00:14:26;68.68;;;40.25;;
27899;SDS011;15243;50.726;7.080;2023-02-23T00:16:57;64.05;;;40.88;;
27899;SDS011;15243;50.726;7.080;2023-02-23T00:19:25;66.50;;;38.08;;
27899;SDS011;15243;50.726;7.080;2023-02-23T00:21:52;63.92;;;38.47;;
27899;SDS011;15243;50.726;7.080;2023-02-23T00:24:20;65.53;;;40.47;;
27899;SDS011;15243;50.726;7.080;2023-02-23T00:26:48;65.72;;;41.35;;
27899;SDS011;15243;50.726;7.080;2023-02-23T00:29:17;66.70;;;41.25;;
27899;SDS011;15243;50.726;7.080;2023-02-23T00:31:46;62.20;;;39.95;;
27899;SDS011;15243;50.726;7.080;2023-02-23T00:34:16;65.50;;;40.72;;
27899;SDS011;15243;50.726;7.080;2023-02-23T00:36:50;70.30;;;41.33;;
27899;SDS011;15243;50.726;7.080;2023-02-23T00:39:20;61.28;;;39.72;;
27899;SDS011;15243;50.726;7.080;2023-02-23T00:41:51;62.08;;;40.80;;
27899;SDS011;15243;50.726;7.080;2023-02-23T00:44:19;62.67;;;38.45;;
27899;SDS011;15243;50.726;7.080;2023-02-23T00:46:47;75.63;;;44.53;;
27899;SDS011;15243;50.726;7.080;2023-02-23T00:49:16;71.45;;;44.10;;
27899;SDS011;15243;50.726;7.080;2023-02-23T00:51:45;68.57;;;41.47;;
27899;SDS011;15243;50.726;7.080;2023-02-23T00:54:12;75.07;;;42.72;;
27899;SDS011;15243;50.726;7.080;2023-02-23T00:56:40;75.63;;;43.03;;
27899;SDS011;15243;50.726;7.080;2023-02-23T00:59:07;69.97;;;43.33;;
27899;SDS011;15243;50.726;7.080;2023-02-23T01:01:35;74.28;;;45.30;;
27899;SDS011;15243;50.726;7.080;2023-02-23T01:04:03;68.88;;;43.38;;
27899;SDS011;15243;50.726;7.080;2023-02-23T01:06:31;72.43;;;45.03;;
27899;SDS011;15243;50.726;7.080;2023-02-23T01:08:58;67.95;;;43.83;;
27899;SDS011;15243;50.726;7.080;2023-02-23T01:11:26;76.85;;;45.85;;
27899;SDS011;15243;50.726;7.080;2023-02-23T01:13:55;71.80;;;44.03;;
27899;SDS011;15243;50.726;7.080;2023-02-23T01:16:25;78.25;;;47.67;;
27899;SDS011;15243;50.726;7.080;2023-02-23T01:18:54;81.50;;;49.83;;
27899;SDS011;15243;50.726;7.080;2023-02-23T01:21:29;74.57;;;47.72;;
27899;SDS011;15243;50.726;7.080;2023-02-23T01:23:58;78.05;;;47.83;;
27899;SDS011;15243;50.726;7.080;2023-02-23T01:26:30;75.70;;;48.40;;
27899;SDS011;15243;50.726;7.080;2023-02-23T01:29:09;78.40;;;49.25;;
27899;SDS011;15243;50.726;7.080;2023-02-23T01:31:38;83.63;;;49.42;;
27899;SDS011;15243;50.726;7.080;2023-02-23T01:34:08;80.95;;;47.55;;
27899;SDS011;15243;50.726;7.080;2023-02-23T01:36:37;77.82;;;47.55;;
27899;SDS011;15243;50.726;7.080;2023-02-23T01:39:06;82.03;;;48.58;;
27899;SDS011;15243;50.726;7.080;2023-02-23T01:41:37;83.75;;;49.28;;
27899;SDS011;15243;50.726;7.080;2023-02-23T01:46:57;85.07;;;50.88;;
27899;SDS011;15243;50.726;7.080;2023-02-23T01:49:25;86.53;;;51.70;;
27899;SDS011;15243;50.726;7.080;2023-02-23T01:54:33;78.50;;;49.17;;
27899;SDS011;15243;50.726;7.080;2023-02-23T01:59:36;76.55;;;46.65;;
27899;SDS011;15243;50.726;7.080;2023-02-23T02:02:05;84.05;;;49.30;;
27899;SDS011;15243;50.726;7.080;2023-02-23T02:04:37;76.63;;;47.22;;
27899;SDS011;15243;50.726;7.080;2023-02-23T02:07:20;72.43;;;46.10;;
27899;SDS011;15243;50.726;7.080;2023-02-23T02:09:51;84.50;;;49.67;;
27899;SDS011;15243;50.726;7.080;2023-02-23T02:12:48;84.50;;;49.53;;
27899;SDS011;15243;50.726;7.080;2023-02-23T02:15:20;79.43;;;47.75;;
27899;SDS011;15243;50.726;7.080;2023-02-23T02:21:03;76.13;;;46.35;;
27899;SDS011;15243;50.726;7.080;2023-02-23T02:26:46;76.55;;;45.55;;
27899;SDS011;15243;50.726;7.080;2023-02-23T02:35:04;76.35;;;46.45;;
27899;SDS011;15243;50.726;7.080;2023-02-23T02:37:38;72.63;;;44.17;;
27899;SDS011;15243;50.726;7.080;2023-02-23T02:40:16;72.80;;;44.63;;
27899;SDS011;15243;50.726;7.080;2023-02-23T02:48:24;86.68;;;47.35;;
27899;SDS011;15243;50.726;7.080;2023-02-23T02:51:06;80.35;;;47.80;;
27899;SDS011;15243;50.726;7.080;2023-02-23T02:56:24;88.32;;;51.97;;
27899;SDS011;15243;50.726;7.080;2023-02-23T02:58:52;96.68;;;58.85;;
27899;SDS011;15243;50.726;7.080;2023-02-23T03:01:19;95.38;;;58.78;;
27899;SDS011;15243;50.726;7.080;2023-02-23T03:04:18;89.57;;;52.85;;
27899;SDS011;15243;50.726;7.080;2023-02-23T03:07:28;96.90;;;56.42;;
27899;SDS011;15243;50.726;7.080;2023-02-23T03:13:45;87.15;;;53.90;;
27899;SDS011;15243;50.726;7.080;2023-02-23T03:16:55;91.38;;;54.47;;
27899;SDS011;15243;50.726;7.080;2023-02-23T03:19:52;87.88;;;53.40;;
27899;SDS011;15243;50.726;7.080;2023-02-23T03:25:48;98.50;;;57.65;;
27899;SDS011;15243;50.726;7.080;2023-02-23T03:28:49;96.82;;;59.17;;
27899;SDS011;15243;50.726;7.080;2023-02-23T03:31:52;86.50;;;54.10;;
27899;SDS011;15243;50.726;7.080;2023-02-23T03:34:56;91.07;;;54.95;;
27899;SDS011;15243;50.726;7.080;2023-02-23T03:37:55;91.22;;;56.83;;
27899;SDS011;15243;50.726;7.080;2023-02-23T03:40:50;89.80;;;53.72;;
27899;SDS011;15243;50.726;7.080;2023-02-23T03:43:43;94.45;;;55.78;;
27899;SDS011;15243;50.726;7.080;2023-02-23T03:46:34;91.22;;;53.10;;
27899;SDS011;15243;50.726;7.080;2023-02-23T03:49:21;93.60;;;54.13;;
27899;SDS011;15243;50.726;7.080;2023-02-23T03:52:12;91.63;;;54.65;;
27899;SDS011;15243;50.726;7.080;2023-02-23T03:55:07;94.30;;;54.65;;
27899;SDS011;15243;50.726;7.080;2023-02-23T04:00:46;95.57;;;53.40;;
27899;SDS011;15243;50.726;7.080;2023-02-23T04:03:34;92.82;;;53.88;;
27899;SDS011;15243;50.726;7.080;2023-02-23T04:06:23;88.78;;;53.33;;
27899;SDS011;15243;50.726;7.080;2023-02-23T04:09:12;99.43;;;56.65;;
27899;SDS011;15243;50.726;7.080;2023-02-23T04:15:14;98.13;;;55.83;;
27899;SDS011;15243;50.726;7.080;2023-02-23T04:17:43;95.90;;;58.17;;
27899;SDS011;15243;50.726;7.080;2023-02-23T04:20:10;95.68;;;59.38;;
27899;SDS011;15243;50.726;7.080;2023-02-23T04:22:38;105.47;;;62.28;;
27899;SDS011;15243;50.726;7.080;2023-02-23T04:25:05;112.88;;;65.75;;
27899;SDS011;15243;50.726;7.080;2023-02-23T04:27:34;120.60;;;66.97;;
27899;SDS011;15243;50.726;7.080;2023-02-23T04:30:02;125.70;;;70.88;;
27899;SDS011;15243;50.726;7.080;2023-02-23T04:32:29;133.40;;;73.57;;
27899;SDS011;15243;50.726;7.080;2023-02-23T04:34:57;126.30;;;71.45;;
27899;SDS011;15243;50.726;7.080;2023-02-23T04:37:24;123.78;;;73.72;;
27899;SDS011;15243;50.726;7.080;2023-02-23T04:39:50;138.18;;;76.90;;
27899;SDS011;15243;50.726;7.080;2023-02-23T04:42:17;156.32;;;83.65;;
27899;SDS011;15243;50.726;7.080;2023-02-23T04:44:44;158.95;;;83.68;;
27899;SDS011;15243;50.726;7.080;2023-02-23T04:47:13;163.27;;;84.60;;
27899;SDS011;15243;50.726;7.080;2023-02-23T04:49:41;160.27;;;83.45;;
27899;SDS011;15243;50.726;7.080;2023-02-23T04:52:08;166.05;;;86.60;;
27899;SDS011;15243;50.726;7.080;2023-02-23T04:54:38;164.77;;;86.78;;
27899;SDS011;15243;50.726;7.080;2023-02-23T04:57:06;170.98;;;91.43;;
27899;SDS011;15243;50.726;7.080;2023-02-23T04:59:34;172.93;;;92.13;;
27899;SDS011;15243;50.726;7.080;2023-02-23T05:02:01;178.82;;;93.50;;
27899;SDS011;15243;50.726;7.080;2023-02-23T05:04:28;164.93;;;87.72;;
27899;SDS011;15243;50.726;7.080;2023-02-23T05:06:55;176.68;;;92.72;;
27899;SDS011;15243;50.726;7.080;2023-02-23T05:09:22;177.32;;;92.15;;
27899;SDS011;15243;50.726;7.080;2023-02-23T05:11:49;172.52;;;91.70;;
27899;SDS011;15243;50.726;7.080;2023-02-23T05:14:15;163.27;;;90.22;;
27899;SDS011;15243;50.726;7.080;2023-02-23T05:16:42;169.65;;;90.10;;
27899;SDS011;15243;50.726;7.080;2023-02-23T05:19:09;163.05;;;89.50;;
27899;SDS011;15243;50.726;7.080;2023-02-23T05:21:36;163.10;;;87.32;;
27899;SDS011;15243;50.726;7.080;2023-02-23T05:24:04;169.40;;;88.38;;
27899;SDS011;15243;50.726;7.080;2023-02-23T05:26:31;170.50;;;91.90;;
27899;SDS011;15243;50.726;7.080;2023-02-23T05:28:58;183.18;;;94.60;;
27899;SDS011;15243;50.726;7.080;2023-02-23T05:31:25;185.15;;;94.68;;
27899;SDS011;15243;50.726;7.080;2023-02-23T05:33:53;178.52;;;94.63;;
27899;SDS011;15243;50.726;7.080;2023-02-23T05:36:20;191.18;;;96.05;;
27899;SDS011;15243;50.726;7.080;2023-02-23T05:38:47;196.32;;;97.93;;
27899;SDS011;15243;50.726;7.080;2023-02-23T05:41:16;186.57;;;99.07;;
27899;SDS011;15243;50.726;7.080;2023-02-23T05:43:44;204.32;;;98.40;;
27899;SDS011;15243;50.726;7.080;2023-02-23T05:46:16;191.35;;;100.68;;
27899;SDS011;15243;50.726;7.080;2023-02-23T05:48:45;197.05;;;97.30;;
27899;SDS011;15243;50.726;7.080;2023-02-23T05:51:13;199.93;;;101.43;;
27899;SDS011;15243;50.726;7.080;2023-02-23T05:53:41;191.45;;;98.13;;
27899;SDS011;15243;50.726;7.080;2023-02-23T05:56:09;194.00;;;97.45;;
27899;SDS011;15243;50.726;7.080;2023-02-23T05:58:38;195.15;;;99.68;;
27899;SDS011;15243;50.726;7.080;2023-02-23T06:01:05;184.98;;;98.13;;
27899;SDS011;15243;50.726;7.080;2023-02-23T06:03:32;189.43;;;96.90;;
27899;SDS011;15243;50.726;7.080;2023-02-23T06:05:59;174.68;;;93.10;;
27899;SDS011;15243;50.726;7.080;2023-02-23T06:08:26;173.60;;;93.50;;
27899;SDS011;15243;50.726;7.080;2023-02-23T06:10:53;161.35;;;87.65;;
27899;SDS011;15243;50.726;7.080;2023-02-23T06:13:20;161.63;;;88.25;;
27899;SDS011;15243;50.726;7.080;2023-02-23T06:15:47;161.57;;;86.78;;
27899;SDS011;15243;50.726;7.080;2023-02-23T06:18:15;153.32;;;84.57;;
27899;SDS011;15243;50.726;7.080;2023-02-23T06:20:43;159.68;;;85.90;;
27899;SDS011;15243;50.726;7.080;2023-02-23T06:23:10;147.25;;;81.60;;
27899;SDS011;15243;50.726;7.080;2023-02-23T06:25:38;147.30;;;81.35;;
27899;SDS011;15243;50.726;7.080;2023-02-23T06:28:05;133.45;;;77.38;;
27899;SDS011;15243;50.726;7.080;2023-02-23T06:30:34;141.32;;;79.10;;
27899;SDS011;15243;50.726;7.080;2023-02-23T06:33:02;143.27;;;78.57;;
27899;SDS011;15243;50.726;7.080;2023-02-23T06:35:29;134.23;;;77.15;;
27899;SDS011;15243;50.726;7.080;2023-02-23T06:38:00;132.77;;;74.95;;
27899;SDS011;15243;50.726;7.080;2023-02-23T06:40:27;136.05;;;75.28;;
27899;SDS011;15243;50.726;7.080;2023-02-23T06:42:55;128.13;;;74.25;;
27899;SDS011;15243;50.726;7.080;2023-02-23T06:45:22;125.43;;;71.22;;
27899;SDS011;15243;50.726;7.080;2023-02-23T06:47:49;124.32;;;72.50;;
27899;SDS011;15243;50.726;7.080;2023-02-23T06:50:16;117.82;;;68.82;;
27899;SDS011;15243;50.726;7.080;2023-02-23T06:52:43;121.65;;;71.45;;
27899;SDS011;15243;50.726;7.080;2023-02-23T06:55:11;128.00;;;72.28;;
27899;SDS011;15243;50.726;7.080;2023-02-23T06:57:41;125.05;;;71.95;;
27899;SDS011;15243;50.726;7.080;2023-02-23T07:00:09;118.80;;;69.07;;
27899;SDS011;15243;50.726;7.080;2023-02-23T07:02:42;119.30;;;68.35;;
27899;SDS011;15243;50.726;7.080;2023-02-23T07:05:10;116.60;;;66.10;;
27899;SDS011;15243;50.726;7.080;2023-02-23T07:07:37;115.65;;;65.85;;
27899;SDS011;15243;50.726;7.080;2023-02-23T07:10:04;109.65;;;64.15;;
27899;SDS011;15243;50.726;7.080;2023-02-23T07:12:32;113.88;;;61.13;;
27899;SDS011;15243;50.726;7.080;2023-02-23T07:14:58;104.25;;;59.97;;
27899;SDS011;15243;50.726;7.080;2023-02-23T07:17:25;99.88;;;58.15;;
27899;SDS011;15243;50.726;7.080;2023-02-23T07:19:52;104.10;;;60.65;;
27899;SDS011;15243;50.726;7.080;2023-02-23T07:22:19;107.40;;;61.25;;
27899;SDS011;15243;50.726;7.080;2023-02-23T07:24:47;101.30;;;59.33;;
27899;SDS011;15243;50.726;7.080;2023-02-23T07:27:14;105.78;;;59.08;;
27899;SDS011;15243;50.726;7.080;2023-02-23T07:29:41;101.00;;;58.08;;
27899;SDS011;15243;50.726;7.080;2023-02-23T07:32:11;98.43;;;57.15;;
27899;SDS011;15243;50.726;7.080;2023-02-23T07:34:38;99.93;;;58.65;;
27899;SDS011;15243;50.726;7.080;2023-02-23T07:37:05;93.55;;;54.28;;
27899;SDS011;15243;50.726;7.080;2023-02-23T07:39:32;96.15;;;55.55;;
27899;SDS011;15243;50.726;7.080;2023-02-23T07:41:59;101.20;;;55.10;;
27899;SDS011;15243;50.726;7.080;2023-02-23T07:44:26;98.18;;;55.05;;
27899;SDS011;15243;50.726;7.080;2023-02-23T07:46:52;99.35;;;56.97;;
27899;SDS011;15243;50.726;7.080;2023-02-23T07:49:19;101.93;;;56.13;;
27899;SDS011;15243;50.726;7.080;2023-02-23T07:51:46;107.70;;;57.85;;
27899;SDS011;15243;50.726;7.080;2023-02-23T07:54:13;96.70;;;54.75;;
27899;SDS011;15243;50.726;7.080;2023-02-23T07:56:41;94.43;;;55.78;;
27899;SDS011;15243;50.726;7.080;2023-02-23T07:59:07;95.60;;;56.83;;
27899;SDS011;15243;50.726;7.080;2023-02-23T08:01:34;104.05;;;58.83;;
27899;SDS011;15243;50.726;7.080;2023-02-23T08:04:01;88.22;;;52.30;;
27899;SDS011;15243;50.726;7.080;2023-02-23T08:06:29;93.38;;;54.05;;
27899;SDS011;15243;50.726;7.080;2023-02-23T08:09:00;91.47;;;53.03;;
27899;SDS011;15243;50.726;7.080;2023-02-23T08:11:28;95.37;;;53.77;;
27899;SDS011;15243;50.726;7.080;2023-02-23T08:13:55;92.88;;;52.58;;
27899;SDS011;15243;50.726;7.080;2023-02-23T08:16:26;87.00;;;50.72;;
27899;SDS011;15243;50.726;7.080;2023-02-23T08:18:57;89.07;;;51.15;;
27899;SDS011;15243;50.726;7.080;2023-02-23T08:21:25;86.22;;;50.20;;
27899;SDS011;15243;50.726;7.080;2023-02-23T08:23:54;87.32;;;50.58;;
27899;SDS011;15243;50.726;7.080;2023-02-23T08:26:22;95.95;;;52.97;;
27899;SDS011;15243;50.726;7.080;2023-02-23T08:28:51;91.65;;;54.22;;
27899;SDS011;15243;50.726;7.080;2023-02-23T08:31:18;91.28;;;52.05;;
27899;SDS011;15243;50.726;7.080;2023-02-23T08:33:50;90.25;;;51.45;;
27899;SDS011;15243;50.726;7.080;2023-02-23T08:36:18;91.88;;;51.95;;
27899;SDS011;15243;50.726;7.080;2023-02-23T08:38:46;90.28;;;49.83;;
27899;SDS011;15243;50.726;7.080;2023-02-23T08:41:13;86.47;;;48.92;;
27899;SDS011;15243;50.726;7.080;2023-02-23T08:43:40;98.65;;;52.00;;
27899;SDS011;15243;50.726;7.080;2023-02-23T08:46:07;98.90;;;54.63;;
27899;SDS011;15243;50.726;7.080;2023-02-23T08:48:34;91.40;;;52.80;;
27899;SDS011;15243;50.726;7.080;2023-02-23T08:51:01;100.22;;;53.50;;
27899;SDS011;15243;50.726;7.080;2023-02-23T08:53:28;94.30;;;51.35;;
27899;SDS011;15243;50.726;7.080;2023-02-23T08:55:58;97.00;;;52.63;;
27899;SDS011;15243;50.726;7.080;2023-02-23T08:58:27;99.28;;;53.88;;
27899;SDS011;15243;50.726;7.080;2023-02-23T09:00:56;95.07;;;52.00;;
27899;SDS011;15243;50.726;7.080;2023-02-23T09:03:23;90.53;;;50.88;;
27899;SDS011;15243;50.726;7.080;2023-02-23T09:05:51;91.25;;;50.60;;
27899;SDS011;15243;50.726;7.080;2023-02-23T09:08:18;90.55;;;49.47;;
27899;SDS011;15243;50.726;7.080;2023-02-23T09:10:46;99.22;;;48.38;;
27899;SDS011;15243;50.726;7.080;2023-02-23T09:13:13;91.05;;;49.10;;
27899;SDS011;15243;50.726;7.080;2023-02-23T09:15:41;87.15;;;47.17;;
27899;SDS011;15243;50.726;7.080;2023-02-23T09:18:10;85.80;;;47.20;;
27899;SDS011;15243;50.726;7.080;2023-02-23T09:20:41;86.78;;;47.17;;
27899;SDS011;15243;50.726;7.080;2023-02-23T09:23:09;82.85;;;44.13;;
27899;SDS011;15243;50.726;7.080;2023-02-23T09:25:41;82.35;;;44.50;;
27899;SDS011;15243;50.726;7.080;2023-02-23T09:28:16;78.32;;;44.53;;
27899;SDS011;15243;50.726;7.080;2023-02-23T09:30:44;71.25;;;40.55;;
27899;SDS011;15243;50.726;7.080;2023-02-23T09:33:12;72.63;;;41.80;;
27899;SDS011;15243;50.726;7.080;2023-02-23T09:35:39;79.18;;;42.83;;
27899;SDS011;15243;50.726;7.080;2023-02-23T09:38:06;79.70;;;43.20;;
27899;SDS011;15243;50.726;7.080;2023-02-23T09:40:41;73.53;;;42.50;;
27899;SDS011;15243;50.726;7.080;2023-02-23T09:46:01;78.85;;;43.90;;
27899;SDS011;15243;50.726;7.080;2023-02-23T09:48:52;76.00;;;42.17;;
27899;SDS011;15243;50.726;7.080;2023-02-23T09:51:22;81.72;;;44.58;;
27899;SDS011;15243;50.726;7.080;2023-02-23T09:53:51;82.18;;;43.78;;
27899;SDS011;15243;50.726;7.080;2023-02-23T09:56:35;79.13;;;43.55;;
27899;SDS011;15243;50.726;7.080;2023-02-23T09:59:23;82.93;;;43.70;;
27899;SDS011;15243;50.726;7.080;2023-02-23T10:01:58;79.55;;;43.22;;
27899;SDS011;15243;50.726;7.080;2023-02-23T10:04:45;75.53;;;42.58;;
27899;SDS011;15243;50.726;7.080;2023-02-23T10:29:40;60.47;;;35.53;;
27899;SDS011;15243;50.726;7.080;2023-02-23T10:32:14;55.78;;;33.45;;
27899;SDS011;15243;50.726;7.080;2023-02-23T10:34:54;57.00;;;33.00;;
27899;SDS011;15243;50.726;7.080;2023-02-23T10:37:22;53.28;;;31.00;;
27899;SDS011;15243;50.726;7.080;2023-02-23T10:39:51;48.60;;;30.50;;
27899;SDS011;15243;50.726;7.080;2023-02-23T10:42:25;54.35;;;31.33;;
27899;SDS011;15243;50.726;7.080;2023-02-23T10:44:57;52.72;;;31.80;;
27899;SDS011;15243;50.726;7.080;2023-02-23T10:47:25;54.35;;;30.60;;
27899;SDS011;15243;50.726;7.080;2023-02-23T10:55:10;44.35;;;27.67;;
27899;SDS011;15243;50.726;7.080;2023-02-23T11:00:31;45.25;;;29.40;;
27899;SDS011;15243;50.726;7.080;2023-02-23T11:03:02;47.08;;;28.38;;
27899;SDS011;15243;50.726;7.080;2023-02-23T11:05:45;45.33;;;27.60;;
27899;SDS011;15243;50.726;7.080;2023-02-23T11:13:42;48.47;;;28.38;;
27899;SDS011;15243;50.726;7.080;2023-02-23T11:16:29;45.85;;;27.00;;
27899;SDS011;15243;50.726;7.080;2023-02-23T11:19:05;44.63;;;27.65;;
27899;SDS011;15243;50.726;7.080;2023-02-23T11:21:48;41.72;;;27.20;;
27899;SDS011;15243;50.726;7.080;2023-02-23T11:26:52;41.53;;;27.48;;
27899;SDS011;15243;50.726;7.080;2023-02-23T11:29:29;43.45;;;27.45;;
27899;SDS011;15243;50.726;7.080;2023-02-23T11:32:07;42.55;;;26.40;;
27899;SDS011;15243;50.726;7.080;2023-02-23T11:35:13;46.88;;;28.33;;
27899;SDS011;15243;50.726;7.080;2023-02-23T11:37:55;40.78;;;25.23;;
27899;SDS011;15243;50.726;7.080;2023-02-23T11:40:29;38.10;;;25.35;;
27899;SDS011;15243;50.726;7.080;2023-02-23T11:45:32;37.72;;;25.45;;
27899;SDS011;15243;50.726;7.080;2023-02-23T11:48:15;38.42;;;24.45;;
27899;SDS011;15243;50.726;7.080;2023-02-23T11:50:52;36.17;;;23.73;;
27899;SDS011;15243;50.726;7.080;2023-02-23T11:53:25;38.60;;;24.20;;
27899;SDS011;15243;50.726;7.080;2023-02-23T11:56:03;38.05;;;23.48;;
27899;SDS011;15243;50.726;7.080;2023-02-23T11:58:42;39.72;;;24.70;;
27899;SDS011;15243;50.726;7.080;2023-02-23T12:01:13;38.63;;;24.55;;
27899;SDS011;15243;50.726;7.080;2023-02-23T12:03:47;43.75;;;25.25;;
27899;SDS011;15243;50.726;7.080;2023-02-23T12:06:28;43.42;;;25.08;;
27899;SDS011;15243;50.726;7.080;2023-02-23T12:09:05;37.88;;;23.85;;
27899;SDS011;15243;50.726;7.080;2023-02-23T12:11:40;44.50;;;23.75;;
27899;SDS011;15243;50.726;7.080;2023-02-23T12:14:28;41.45;;;24.80;;
27899;SDS011;15243;50.726;7.080;2023-02-23T12:17:12;41.13;;;23.70;;
27899;SDS011;15243;50.726;7.080;2023-02-23T12:19:49;46.00;;;26.17;;
27899;SDS011;15243;50.726;7.080;2023-02-23T12:22:23;41.08;;;25.35;;
27899;SDS011;15243;50.726;7.080;2023-02-23T12:25:00;41.03;;;25.40;;
27899;SDS011;15243;50.726;7.080;2023-02-23T12:27:53;46.42;;;25.88;;
27899;SDS011;15243;50.726;7.080;2023-02-23T12:30:47;41.15;;;25.33;;
27899;SDS011;15243;50.726;7.080;2023-02-23T12:33:23;42.72;;;25.90;;
27899;SDS011;15243;50.726;7.080;2023-02-23T12:38:31;47.78;;;25.10;;
27899;SDS011;15243;50.726;7.080;2023-02-23T12:44:17;41.00;;;24.98;;
27899;SDS011;15243;50.726;7.080;2023-02-23T12:46:56;46.45;;;26.00;;
27899;SDS011;15243;50.726;7.080;2023-02-23T12:49:43;42.33;;;25.33;;
27899;SDS011;15243;50.726;7.080;2023-02-23T12:54:53;47.90;;;28.30;;
27899;SDS011;15243;50.726;7.080;2023-02-23T12:57:23;44.83;;;26.15;;
27899;SDS011;15243;50.726;7.080;2023-02-23T13:03:18;40.10;;;24.23;;
27899;SDS011;15243;50.726;7.080;2023-02-23T13:11:45;41.20;;;24.42;;
27899;SDS011;15243;50.726;7.080;2023-02-23T13:14:29;39.35;;;23.85;;
27899;SDS011;15243;50.726;7.080;2023-02-23T13:17:52;45.58;;;24.35;;
27899;SDS011;15243;50.726;7.080;2023-02-23T13:23:19;41.72;;;23.45;;
27899;SDS011;15243;50.726;7.080;2023-02-23T13:26:20;43.38;;;26.83;;
27899;SDS011;15243;50.726;7.080;2023-02-23T13:31:34;55.97;;;33.17;;
27899;SDS011;15243;50.726;7.080;2023-02-23T13:34:02;74.60;;;37.95;;
27899;SDS011;15243;50.726;7.080;2023-02-23T13:36:34;78.50;;;39.88;;
27899;SDS011;15243;50.726;7.080;2023-02-23T13:39:45;77.28;;;38.67;;
27899;SDS011;15243;50.726;7.080;2023-02-23T13:44:47;73.28;;;34.97;;
27899;SDS011;15243;50.726;7.080;2023-02-23T13:50:35;69.47;;;32.60;;
27899;SDS011;15243;50.726;7.080;2023-02-23T13:53:36;72.85;;;32.90;;
27899;SDS011;15243;50.726;7.080;2023-02-23T13:56:15;80.90;;;33.35;;
27899;SDS011;15243;50.726;7.080;2023-02-23T13:58:45;69.03;;;30.83;;
27899;SDS011;15243;50.726;7.080;2023-02-23T14:01:19;64.75;;;30.17;;
27899;SDS011;15243;50.726;7.080;2023-02-23T14:03:52;68.65;;;31.42;;
27899;SDS011;15243;50.726;7.080;2023-02-23T14:06:24;73.75;;;31.90;;
27899;SDS011;15243;50.726;7.080;2023-02-23T14:11:35;78.45;;;35.10;;
27899;SDS011;15243;50.726;7.080;2023-02-23T14:14:03;86.32;;;35.05;;
27899;SDS011;15243;50.726;7.080;2023-02-23T14:16:30;84.00;;;35.67;;
27899;SDS011;15243;50.726;7.080;2023-02-23T14:19:05;85.40;;;35.80;;
27899;SDS011;15243;50.726;7.080;2023-02-23T14:24:24;80.43;;;35.05;;
27899;SDS011;15243;50.726;7.080;2023-02-23T14:27:04;80.60;;;36.28;;
27899;SDS011;15243;50.726;7.080;2023-02-23T14:32:36;88.47;;;39.10;;
27899;SDS011;15243;50.726;7.080;2023-02-23T14:38:09;99.43;;;40.85;;
27899;SDS011;15243;50.726;7.080;2023-02-23T14:40:50;99.97;;;41.95;;
27899;SDS011;15243;50.726;7.080;2023-02-23T14:46:03;105.20;;;44.15;;
27899;SDS011;15243;50.726;7.080;2023-02-23T14:48:37;114.15;;;45.72;;
27899;SDS011;15243;50.726;7.080;2023-02-23T14:51:40;105.43;;;44.30;;
27899;SDS011;15243;50.726;7.080;2023-02-23T14:54:24;101.45;;;41.58;;
27899;SDS011;15243;50.726;7.080;2023-02-23T14:56:56;98.38;;;41.47;;
27899;SDS011;15243;50.726;7.080;2023-02-23T14:59:28;107.45;;;42.95;;
27899;SDS011;15243;50.726;7.080;2023-02-23T15:02:22;104.45;;;45.35;;
27899;SDS011;15243;50.726;7.080;2023-02-23T15:04:51;101.90;;;42.10;;
27899;SDS011;15243;50.726;7.080;2023-02-23T15:07:25;97.07;;;41.50;;
27899;SDS011;15243;50.726;7.080;2023-02-23T15:10:03;91.70;;;38.50;;
27899;SDS011;15243;50.726;7.080;2023-02-23T15:12:37;94.95;;;40.72;;
27899;SDS011;15243;50.726;7.080;2023-02-23T15:15:06;84.20;;;38.50;;
27899;SDS011;15243;50.726;7.080;2023-02-23T15:17:43;85.85;;;36.00;;
27899;SDS011;15243;50.726;7.080;2023-02-23T15:20:14;83.88;;;35.40;;
27899;SDS011;15243;50.726;7.080;2023-02-23T15:22:46;78.18;;;32.53;;
27899;SDS011;15243;50.726;7.080;2023-02-23T15:25:20;70.43;;;32.65;;
27899;SDS011;15243;50.726;7.080;2023-02-23T15:27:51;72.97;;;32.65;;
27899;SDS011;15243;50.726;7.080;2023-02-23T15:32:47;66.10;;;29.55;;
27899;SDS011;15243;50.726;7.080;2023-02-23T15:35:14;63.00;;;28.65;;
27899;SDS011;15243;50.726;7.080;2023-02-23T15:37:42;66.07;;;29.83;;
27899;SDS011;15243;50.726;7.080;2023-02-23T15:40:24;69.32;;;29.58;;
27899;SDS011;15243;50.726;7.080;2023-02-23T15:42:54;65.38;;;29.50;;
27899;SDS011;15243;50.726;7.080;2023-02-23T15:47:51;64.10;;;30.75;;
27899;SDS011;15243;50.726;7.080;2023-02-23T15:50:23;66.03;;;29.05;;
27899;SDS011;15243;50.726;7.080;2023-02-23T15:53:04;61.92;;;29.65;;
27899;SDS011;15243;50.726;7.080;2023-02-23T15:55:40;60.67;;;28.17;;
27899;SDS011;15243;50.726;7.080;2023-02-23T15:58:20;59.42;;;28.33;;
27899;SDS011;15243;50.726;7.080;2023-02-23T16:00:59;61.35;;;29.27;;
27899;SDS011;15243;50.726;7.080;2023-02-23T16:03:32;62.47;;;29.77;;
27899;SDS011;15243;50.726;7.080;2023-02-23T16:06:03;63.28;;;29.23;;
27899;SDS011;15243;50.726;7.080;2023-02-23T16:08:32;58.55;;;27.38;;
27899;SDS011;15243;50.726;7.080;2023-02-23T16:11:09;54.50;;;28.00;;
27899;SDS011;15243;50.726;7.080;2023-02-23T16:13:43;60.40;;;29.30;;
27899;SDS011;15243;50.726;7.080;2023-02-23T16:16:11;59.08;;;29.23;;
27899;SDS011;15243;50.726;7.080;2023-02-23T16:18:46;61.65;;;29.98;;
27899;SDS011;15243;50.726;7.080;2023-02-23T16:21:19;58.83;;;28.52;;
27899;SDS011;15243;50.726;7.080;2023-02-23T16:23:49;57.45;;;27.27;;
27899;SDS011;15243;50.726;7.080;2023-02-23T16:26:26;57.90;;;28.42;;
27899;SDS011;15243;50.726;7.080;2023-02-23T16:29:00;64.57;;;30.10;;
27899;SDS011;15243;50.726;7.080;2023-02-23T16:31:42;61.10;;;28.50;;
27899;SDS011;15243;50.726;7.080;2023-02-23T16:34:33;62.00;;;28.30;;
27899;SDS011;15243;50.726;7.080;2023-02-23T16:37:03;59.17;;;27.42;;
27899;SDS011;15243;50.726;7.080;2023-02-23T16:39:40;60.75;;;27.00;;
27899;SDS011;15243;50.726;7.080;2023-02-23T16:42:10;54.92;;;25.98;;
27899;SDS011;15243;50.726;7.080;2023-02-23T16:44:52;59.13;;;26.15;;
27899;SDS011;15243;50.726;7.080;2023-02-23T16:49:49;49.95;;;23.95;;
27899;SDS011;15243;50.726;7.080;2023-02-23T16:52:17;55.92;;;26.33;;
27899;SDS011;15243;50.726;7.080;2023-02-23T16:54:45;57.08;;;26.58;;
27899;SDS011;15243;50.726;7.080;2023-02-23T16:57:17;57.63;;;26.88;;
27899;SDS011;15243;50.726;7.080;2023-02-23T16:59:47;52.03;;;25.88;;
27899;SDS011;15243;50.726;7.080;2023-02-23T17:02:16;57.03;;;26.98;;
27899;SDS011;15243;50.726;7.080;2023-02-23T17:04:44;54.50;;;25.48;;
27899;SDS011;15243;50.726;7.080;2023-02-23T17:07:14;58.72;;;27.20;;
27899;SDS011;15243;50.726;7.080;2023-02-23T17:09:42;57.85;;;26.08;;